createdAt,value
2018-07-11T00:00:09.729Z,52.90
2018-07-11T00:05:12.951Z,52.90
2018-07-11T00:10:16.184Z,52.90
2018-07-11T00:15:19.402Z,53.00
2018-07-11T00:20:22.615Z,52.90
2018-07-11T00:25:25.844Z,52.80
2018-07-11T00:30:29.073Z,53.00
2018-07-11T00:35:32.284Z,53.10
2018-07-11T00:40:35.515Z,53.10
2018-07-11T00:45:38.888Z,53.10
2018-07-11T00:50:42.228Z,52.60
2018-07-11T00:55:46.080Z,53.00
2018-07-11T01:01:17.260Z,53.00
2018-07-11T01:06:20.579Z,53.00
2018-07-11T01:11:24.200Z,52.90
2018-07-11T01:16:27.449Z,52.70
2018-07-11T01:21:33.580Z,52.90
2018-07-11T01:26:39.558Z,52.60
2018-07-11T01:31:42.770Z,53.00
2018-07-11T01:41:48.943Z,53.20
2018-07-11T01:46:53.524Z,53.20
2018-07-11T01:52:08.008Z,53.20
2018-07-11T01:57:11.236Z,53.00
2018-07-11T02:02:14.412Z,53.30
2018-07-11T02:07:17.611Z,53.20
2018-07-11T02:12:20.825Z,53.10
2018-07-11T02:17:24.032Z,53.20
2018-07-11T02:22:27.675Z,53.20
2018-07-11T02:27:30.876Z,53.50
2018-07-11T02:32:34.588Z,53.20
2018-07-11T02:37:37.788Z,53.40
2018-07-11T02:42:40.997Z,53.30
2018-07-11T02:47:44.845Z,53.50
2018-07-11T02:52:48.048Z,53.30
2018-07-11T02:57:51.243Z,53.50
2018-07-11T03:02:54.452Z,53.40
2018-07-11T03:07:57.687Z,53.50
2018-07-11T03:13:00.898Z,53.80
2018-07-11T03:18:04.240Z,53.60
2018-07-11T03:23:07.436Z,53.30
2018-07-11T03:28:10.631Z,53.60
2018-07-11T03:33:13.844Z,54.40
2018-07-11T03:38:17.035Z,53.50
2018-07-11T03:43:20.353Z,53.60
2018-07-11T03:48:23.536Z,53.60
2018-07-11T03:53:26.736Z,53.60
2018-07-11T03:58:30.084Z,53.70
2018-07-11T04:03:33.299Z,53.70
2018-07-11T04:13:39.484Z,53.90
2018-07-11T04:18:42.656Z,53.80
2018-07-11T04:23:45.851Z,53.90
2018-07-11T04:28:49.073Z,54.00
2018-07-11T04:33:52.344Z,54.20
2018-07-11T04:38:55.500Z,53.70
2018-07-11T04:43:58.667Z,54.00
2018-07-11T04:49:01.849Z,54.30
2018-07-11T04:54:05.043Z,54.20
2018-07-11T04:59:08.286Z,54.40
2018-07-11T05:04:11.441Z,54.10
2018-07-11T05:09:14.809Z,54.60
2018-07-11T05:14:18.001Z,54.30
2018-07-11T05:19:21.196Z,54.10
2018-07-11T05:24:24.435Z,56.90
2018-07-11T05:29:27.748Z,56.00
2018-07-11T05:34:30.957Z,56.00
2018-07-11T05:39:34.467Z,55.70
2018-07-11T05:44:37.682Z,55.50
2018-07-11T05:49:40.892Z,55.30
2018-07-11T05:54:44.075Z,55.20
2018-07-11T05:59:48.128Z,55.20
2018-07-11T06:04:51.340Z,54.80
2018-07-11T06:09:54.754Z,55.10
2018-07-11T06:14:57.963Z,54.90
2018-07-11T06:20:01.132Z,55.00
2018-07-11T06:25:04.383Z,54.60
2018-07-11T06:30:07.540Z,55.10
2018-07-11T06:35:10.803Z,54.80
2018-07-11T06:40:13.960Z,54.90
2018-07-11T06:45:17.127Z,54.80
2018-07-11T06:50:20.291Z,54.90
2018-07-11T06:55:23.537Z,55.00
2018-07-11T07:00:26.691Z,54.70
2018-07-11T07:05:29.871Z,54.90
2018-07-11T07:10:33.115Z,54.80
2018-07-11T07:15:36.324Z,54.70
2018-07-11T07:20:39.519Z,54.70
2018-07-11T07:25:42.776Z,54.80
2018-07-11T07:30:46.004Z,54.50
2018-07-11T07:35:49.205Z,54.60
2018-07-11T07:40:52.422Z,54.20
2018-07-11T07:45:55.614Z,54.10
2018-07-11T07:50:58.832Z,55.00
2018-07-11T07:56:02.052Z,54.40
2018-07-11T08:01:05.232Z,54.20
2018-07-11T08:06:08.469Z,54.40
2018-07-11T08:11:11.679Z,54.30
2018-07-11T08:16:14.872Z,54.20
2018-07-11T08:21:18.110Z,54.30
2018-07-11T08:31:43.083Z,54.20
2018-07-11T08:37:08.584Z,54.30
2018-07-11T08:42:21.219Z,54.10
2018-07-11T08:52:55.288Z,54.30
2018-07-11T09:00:12.021Z,54.40
2018-07-11T09:05:56.703Z,54.30
2018-07-11T09:13:22.851Z,55.10
2018-07-11T09:19:06.552Z,54.70
2018-07-11T09:24:22.436Z,54.90
2018-07-11T09:29:25.560Z,54.90
2018-07-11T09:34:28.745Z,54.70
2018-07-11T09:39:32.058Z,54.80
2018-07-11T09:44:35.369Z,54.30
2018-07-11T09:49:38.791Z,54.50
2018-07-11T09:54:41.996Z,54.40
2018-07-11T09:59:45.188Z,54.50
2018-07-11T10:04:48.359Z,54.50
2018-07-11T10:09:51.588Z,54.40
2018-07-11T10:14:54.799Z,54.10
2018-07-11T10:19:58.015Z,54.30
2018-07-11T10:25:01.207Z,54.00
2018-07-11T10:30:04.427Z,54.10
2018-07-11T10:35:07.635Z,54.50
2018-07-11T10:40:10.855Z,54.20
2018-07-11T10:45:14.190Z,54.00
2018-07-11T10:50:17.454Z,53.70
2018-07-11T10:55:20.712Z,53.80
2018-07-11T11:00:36.654Z,53.80
2018-07-11T11:05:32.458Z,53.30
2018-07-11T11:10:35.676Z,53.90
2018-07-11T11:15:38.887Z,54.30
2018-07-11T11:20:42.124Z,54.30
2018-07-11T11:25:45.411Z,54.30
2018-07-11T11:30:48.597Z,54.20
2018-07-11T11:35:51.816Z,54.60
2018-07-11T11:40:55.042Z,54.90
2018-07-11T11:45:58.251Z,55.10
2018-07-11T11:51:01.544Z,55.50
2018-07-11T11:56:04.757Z,55.40
2018-07-11T12:01:07.963Z,56.00
2018-07-11T12:06:11.282Z,55.70
2018-07-11T12:11:14.448Z,56.10
2018-07-11T12:16:17.637Z,56.70
2018-07-11T12:21:20.802Z,56.20
2018-07-11T12:26:24.013Z,56.40
2018-07-11T12:31:27.264Z,56.60
2018-07-11T12:36:30.572Z,56.80
2018-07-11T12:41:33.936Z,57.10
2018-07-11T12:46:37.115Z,57.20
2018-07-11T12:51:40.401Z,58.30
2018-07-11T12:56:43.626Z,58.00
2018-07-11T13:01:46.824Z,58.10
2018-07-11T13:06:50.104Z,58.60
2018-07-11T13:11:53.360Z,58.70
2018-07-11T13:16:56.587Z,59.00
2018-07-11T13:21:59.868Z,59.00
2018-07-11T13:27:03.151Z,59.50
2018-07-11T13:32:06.418Z,58.20
2018-07-11T13:37:09.623Z,58.50
2018-07-11T13:42:12.832Z,58.90
2018-07-11T13:47:21.416Z,59.00
2018-07-11T13:52:24.649Z,59.20
2018-07-11T13:57:28.252Z,59.30
2018-07-11T14:02:31.467Z,59.80
2018-07-11T14:07:34.915Z,59.60
2018-07-11T14:12:38.206Z,59.90
2018-07-11T14:17:41.460Z,59.80
2018-07-11T14:22:46.799Z,59.40
2018-07-11T14:27:50.804Z,59.90
2018-07-11T14:32:58.080Z,60.50
2018-07-11T14:38:01.275Z,60.40
2018-07-11T14:43:04.467Z,62.50
2018-07-11T14:48:10.202Z,64.90
2018-07-11T14:53:13.404Z,64.50
2018-07-11T14:58:16.729Z,62.40
2018-07-11T15:03:20.027Z,61.50
2018-07-11T15:08:23.944Z,62.40
2018-07-11T15:13:27.059Z,61.00
2018-07-11T15:18:30.262Z,62.10
2018-07-11T15:23:33.569Z,62.30
2018-07-11T15:28:36.829Z,63.00
2018-07-11T15:33:40.090Z,62.80
2018-07-11T15:38:43.423Z,63.20
2018-07-11T15:43:47.077Z,64.30
2018-07-11T15:48:50.289Z,63.50
2018-07-11T15:53:53.864Z,64.60
2018-07-11T15:59:04.031Z,65.30
2018-07-11T16:04:07.150Z,67.00
2018-07-11T16:09:10.499Z,64.90
2018-07-11T16:14:13.688Z,64.50
2018-07-11T16:19:16.912Z,62.90
2018-07-11T16:24:20.123Z,62.60
2018-07-11T16:29:23.720Z,61.90
2018-07-11T16:34:26.924Z,62.30
2018-07-11T16:39:30.338Z,62.00
2018-07-11T16:44:33.977Z,62.20
2018-07-11T16:49:41.067Z,62.30
2018-07-11T16:54:45.464Z,62.20
2018-07-11T16:59:57.107Z,62.40
2018-07-11T17:05:06.767Z,62.20
2018-07-11T17:10:09.988Z,63.00
2018-07-11T17:15:13.191Z,62.30
2018-07-11T17:20:16.402Z,62.20
2018-07-11T17:25:20.113Z,61.80
2018-07-11T17:30:23.321Z,61.70
2018-07-11T17:35:26.556Z,61.40
2018-07-11T17:40:34.348Z,61.40
2018-07-11T17:45:38.191Z,61.30
2018-07-11T17:50:41.400Z,61.20
2018-07-11T17:55:52.304Z,61.00
2018-07-11T18:01:03.909Z,60.90
2018-07-11T18:06:14.359Z,60.80
2018-07-11T18:11:17.543Z,61.20
2018-07-11T18:16:32.501Z,61.40
2018-07-11T18:21:44.532Z,61.10
2018-07-11T18:27:01.297Z,60.60
2018-07-11T18:33:17.580Z,61.00
2018-07-11T18:38:21.548Z,64.70
2018-07-11T18:43:35.250Z,63.50
2018-07-11T18:48:50.159Z,63.20
2018-07-11T18:54:11.813Z,62.20
2018-07-11T18:59:24.592Z,61.90
2018-07-11T19:05:45.860Z,63.30
2018-07-11T19:11:24.120Z,62.60
2018-07-11T19:17:37.196Z,61.40
2018-07-11T19:24:03.124Z,62.30
2018-07-11T19:30:17.944Z,62.20
2018-07-11T19:36:38.232Z,62.80
2018-07-11T19:41:51.847Z,62.60
2018-07-11T19:47:36.208Z,63.00
2018-07-11T19:54:54.241Z,62.70
2018-07-11T19:59:57.436Z,63.30
2018-07-11T20:05:00.639Z,59.70
2018-07-11T20:10:03.916Z,59.40
2018-07-11T20:15:07.124Z,59.80
2018-07-11T20:20:10.332Z,59.70
2018-07-11T20:25:13.544Z,59.60
2018-07-11T20:30:16.756Z,59.60
2018-07-11T20:35:19.962Z,59.70
2018-07-11T20:40:23.160Z,59.60
2018-07-11T20:45:26.364Z,59.30
2018-07-11T20:50:29.581Z,59.30
2018-07-11T20:55:32.794Z,59.40
2018-07-11T21:00:48.145Z,59.40
2018-07-11T21:06:01.892Z,59.40
2018-07-11T21:11:16.843Z,59.30
2018-07-11T21:17:31.787Z,59.00
2018-07-11T21:22:35.023Z,59.50
2018-07-11T21:27:38.620Z,59.30
2018-07-11T21:32:41.840Z,59.30
2018-07-11T21:37:45.072Z,59.40
2018-07-11T21:42:48.275Z,59.50
2018-07-11T21:47:51.492Z,59.60
2018-07-11T21:52:54.698Z,59.20
2018-07-11T21:57:57.971Z,59.20
2018-07-11T22:03:01.201Z,59.40
2018-07-11T22:08:06.276Z,59.30
2018-07-11T22:13:09.841Z,59.20
2018-07-11T22:18:24.340Z,58.80
2018-07-11T22:23:26.613Z,58.90
2018-07-11T22:28:28.797Z,58.80
2018-07-11T22:33:31.087Z,58.80
2018-07-11T22:38:33.303Z,58.80
2018-07-11T22:43:35.511Z,58.90
2018-07-11T22:48:37.736Z,58.90
2018-07-11T22:53:39.981Z,58.70
2018-07-11T22:58:42.203Z,59.00
2018-07-11T23:03:44.411Z,58.90
2018-07-11T23:08:46.650Z,58.60
2018-07-11T23:13:49.146Z,58.90
2018-07-11T23:18:51.375Z,58.80
2018-07-11T23:23:53.609Z,58.90
2018-07-11T23:28:55.862Z,58.70
2018-07-11T23:33:58.126Z,58.70
2018-07-11T23:39:00.765Z,58.50
2018-07-11T23:44:03.013Z,58.50
2018-07-11T23:49:05.249Z,58.60
2018-07-11T23:54:07.476Z,58.20
2018-07-11T23:59:09.711Z,58.30
